Avoca, Michigan
Current Conditions -  °F | °C
As of 1:17 PM on Thursday 27 Nov 2014 (Local Time) from KPHN Reporting Station
Overcast Overcast  
Wind Chill: 23°   Ceiling: 2600
Heat Index: 32°   Visibility: 10mi
Dew Point: 25°   Wind: 13mph
Humidity: 75%   Direction: 290°WNW
Pressure: 30.11"   Gusts: 18mph
Location:  43.06°N, 82.69°W
Report Text: KPHN 271817Z AUTO 29011G16KT 10SM BKN026 OVC065 00/M04 A3011 RMK AO2
Loading
Personal Weather Stations






























Interactive Weather Map New forecast layout! Learn more

10-Day Weather Forecast

Advertisements
Track Severe Weather on mobile